Time;durP1;ratioP1;P1;durP2;ratioP2;P2;SDS_P1;SDS_P2;PMS_P1;PMS_P2;Temp;Humidity;BMP_temperature;BMP_pressure;BME280_temperature;BME280_humidity;BME280_pressure;Samples;Min_cycle;Max_cycle;Signal;HPM_P1;HPM_P2
2021/10/31 00:01:28;;;;;;;2.90;2.70;;;13.00;99.90;;;;;;5078065;28;20456;-81
2021/10/31 00:03:55;;;;;;;3.37;3.07;;;12.80;99.90;;;;;;5098803;28;20453;-81
2021/10/31 00:06:21;;;;;;;2.80;2.60;;;12.70;99.90;;;;;;5100289;28;20561;-80
2021/10/31 00:08:48;;;;;;;3.23;3.03;;;12.60;99.90;;;;;;5082763;28;20478;-80
2021/10/31 00:11:15;;;;;;;3.77;3.47;;;12.50;99.90;;;;;;5082370;28;20450;-80
2021/10/31 00:13:42;;;;;;;2.83;2.57;;;12.50;99.90;;;;;;5099583;28;20461;-80
2021/10/31 00:16:08;;;;;;;3.30;3.00;;;12.40;99.90;;;;;;5102259;28;20480;-80
2021/10/31 00:18:37;;;;;;;3.13;2.83;;;12.30;99.90;;;;;;5085015;28;20470;-80
2021/10/31 00:21:04;;;;;;;2.73;2.50;;;12.30;99.90;;;;;;5081123;28;20458;-80
2021/10/31 00:23:30;;;;;;;3.00;2.83;;;12.30;99.90;;;;;;5096349;28;20453;-81
2021/10/31 00:25:57;;;;;;;2.80;2.60;;;12.30;99.90;;;;;;5101717;28;20446;-80
2021/10/31 00:28:25;;;;;;;2.27;2.10;;;12.30;99.90;;;;;;5087364;28;20479;-81
2021/10/31 00:30:52;;;;;;;2.90;2.70;;;12.20;99.90;;;;;;5080812;28;20987;-81
2021/10/31 00:33:19;;;;;;;4.67;2.93;;;12.30;99.90;;;;;;5093276;28;20454;-81
2021/10/31 00:35:47;;;;;;;2.97;2.77;;;12.30;99.90;;;;;;5101127;28;20500;-81
2021/10/31 00:38:14;;;;;;;2.90;1.70;;;12.40;99.90;;;;;;5099394;28;20474;-81
2021/10/31 00:40:43;;;;;;;2.60;2.40;;;12.50;99.90;;;;;;5101367;28;20453;-81
2021/10/31 00:43:10;;;;;;;2.07;1.97;;;12.50;99.90;;;;;;5099227;28;20461;-80
2021/10/31 00:45:37;;;;;;;2.73;2.10;;;12.40;99.90;;;;;;5089958;28;20469;-80
2021/10/31 00:48:04;;;;;;;2.30;2.10;;;12.40;99.90;;;;;;5091696;28;20484;-80
2021/10/31 00:50:31;;;;;;;2.20;2.10;;;12.30;99.90;;;;;;5102939;28;20454;-81
2021/10/31 00:52:59;;;;;;;2.50;2.30;;;12.30;99.90;;;;;;5106088;28;20447;-80
2021/10/31 00:55:26;;;;;;;2.87;2.67;;;12.30;99.90;;;;;;5090146;28;20478;-81
2021/10/31 00:57:53;;;;;;;2.40;2.20;;;12.30;99.90;;;;;;5101001;28;20495;-80
2021/10/31 01:00:20;;;;;;;2.37;2.17;;;12.30;99.90;;;;;;5108718;28;20465;-80
2021/10/31 01:02:47;;;;;;;3.20;2.40;;;12.30;99.90;;;;;;5107769;28;20446;-80
2021/10/31 01:05:19;;;;;;;6.13;2.27;;;12.40;99.90;;;;;;5091590;28;20443;-80
2021/10/31 01:07:59;;;;;;;2.90;2.57;;;12.40;99.90;;;;;;5089797;28;20552;-80
2021/10/31 01:10:38;;;;;;;3.33;3.10;;;12.50;99.90;;;;;;5102358;28;21036;-80
2021/10/31 01:13:27;;;;;;;2.53;2.37;;;12.40;99.90;;;;;;5096912;28;20923;-80
2021/10/31 01:16:02;;;;;;;3.03;2.83;;;12.40;99.90;;;;;;5083762;28;20848;-80
2021/10/31 01:18:46;;;;;;;3.00;2.70;;;12.30;99.90;;;;;;5090840;28;20476;-80
2021/10/31 01:21:24;;;;;;;2.50;2.30;;;12.20;99.90;;;;;;5101711;28;20452;-80
2021/10/31 01:24:10;;;;;;;2.83;2.50;;;12.10;99.90;;;;;;5089401;28;20455;-81
2021/10/31 01:26:51;;;;;;;3.00;2.70;;;12.00;99.90;;;;;;5080680;28;20447;-80
2021/10/31 01:29:34;;;;;;;2.77;2.57;;;12.00;99.90;;;;;;5081462;28;20930;-80
2021/10/31 01:32:18;;;;;;;3.10;2.80;;;12.00;99.90;;;;;;5087736;28;20445;-81
2021/10/31 01:34:56;;;;;;;2.33;2.20;;;11.90;99.90;;;;;;5100256;28;20461;-80
2021/10/31 01:37:34;;;;;;;2.93;2.73;;;11.90;99.90;;;;;;5089852;28;20998;-80
2021/10/31 01:40:08;;;;;;;4.57;2.63;;;11.90;99.90;;;;;;5080024;28;20465;-80
2021/10/31 01:42:46;;;;;;;2.73;2.53;;;11.90;99.90;;;;;;5090209;28;20959;-80
2021/10/31 01:45:19;;;;;;;2.47;2.37;;;11.70;99.90;;;;;;5099879;28;20474;-80
2021/10/31 01:47:55;;;;;;;4.30;2.80;;;11.70;99.90;;;;;;5099816;28;20473;-80
2021/10/31 01:50:35;;;;;;;2.50;2.40;;;11.70;99.90;;;;;;5099872;28;20456;-80
2021/10/31 01:53:06;;;;;;;3.87;2.50;;;11.70;99.90;;;;;;5085262;28;20839;-80
2021/10/31 01:55:37;;;;;;;2.77;2.57;;;11.80;99.90;;;;;;5079258;28;20470;-80
2021/10/31 01:58:06;;;;;;;3.27;2.80;;;11.80;99.90;;;;;;5093883;28;20473;-80
2021/10/31 02:00:34;;;;;;;2.83;2.63;;;11.80;99.90;;;;;;5087372;28;20450;-80
2021/10/31 02:03:02;;;;;;;3.23;2.93;;;11.90;99.90;;;;;;5082120;28;20480;-80
2021/10/31 02:05:32;;;;;;;2.60;2.40;;;11.80;99.90;;;;;;5097453;28;20464;-80
2021/10/31 02:08:07;;;;;;;3.13;2.83;;;11.80;99.90;;;;;;5097493;28;20478;-81
2021/10/31 02:10:36;;;;;;;2.63;2.43;;;11.90;99.90;;;;;;5079417;28;20450;-80
2021/10/31 02:13:05;;;;;;;3.13;2.93;;;11.90;99.90;;;;;;5080931;28;20455;-81
2021/10/31 02:15:33;;;;;;;3.27;2.97;;;11.90;99.90;;;;;;5099586;28;20449;-80
2021/10/31 02:18:01;;;;;;;3.37;3.07;;;11.90;99.90;;;;;;5089446;28;20475;-80
2021/10/31 02:20:29;;;;;;;2.93;2.73;;;11.80;99.90;;;;;;5079100;28;20454;-80
2021/10/31 02:22:58;;;;;;;3.50;3.10;;;11.80;99.90;;;;;;5087227;28;20471;-80
2021/10/31 02:25:26;;;;;;;3.10;2.80;;;11.70;99.90;;;;;;5099643;28;20541;-80
2021/10/31 02:27:53;;;;;;;3.53;3.27;;;11.70;99.90;;;;;;5091021;28;20491;-80
2021/10/31 02:30:21;;;;;;;3.10;2.70;;;11.60;99.90;;;;;;5078500;28;20458;-80
2021/10/31 02:32:48;;;;;;;3.47;3.17;;;11.50;99.90;;;;;;5084605;28;20461;-80
2021/10/31 02:35:15;;;;;;;3.17;2.97;;;11.40;99.90;;;;;;5099241;28;20526;-80
2021/10/31 02:37:43;;;;;;;4.60;3.50;;;11.30;99.90;;;;;;5093554;28;20690;-80
2021/10/31 02:40:13;;;;;;;3.00;2.80;;;11.30;99.90;;;;;;5078563;28;20815;-80
2021/10/31 02:42:41;;;;;;;3.63;3.33;;;11.20;99.90;;;;;;5082543;28;20463;-80
2021/10/31 02:45:09;;;;;;;4.23;3.90;;;11.20;99.90;;;;;;5098787;28;20453;-80
2021/10/31 02:47:41;;;;;;;4.60;3.03;;;11.20;99.90;;;;;;5095564;28;20479;-80
2021/10/31 02:50:10;;;;;;;3.70;3.40;;;11.20;99.90;;;;;;5090205;28;20951;-80
2021/10/31 02:52:48;;;;;;;4.50;4.20;;;11.20;99.90;;;;;;5078273;28;20449;-80
2021/10/31 02:55:21;;;;;;;3.40;3.20;;;11.20;99.90;;;;;;5078312;28;20454;-80
2021/10/31 02:57:54;;;;;;;4.17;3.80;;;11.10;99.90;;;;;;5080154;28;20546;-80
2021/10/31 03:00:22;;;;;;;3.00;2.80;;;11.10;99.90;;;;;;5098144;28;20828;-80
2021/10/31 03:02:49;;;;;;;3.43;3.13;;;11.00;99.90;;;;;;5096292;28;20438;-80
2021/10/31 03:05:16;;;;;;;4.40;3.93;;;10.70;99.90;;;;;;5078300;28;20467;-80
2021/10/31 03:07:43;;;;;;;4.27;3.87;;;10.60;99.90;;;;;;5085404;28;20464;-80
2021/10/31 03:10:17;;;;;;;3.63;2.92;;;10.60;99.90;;;;;;5098569;28;20460;-80
2021/10/31 03:12:44;;;;;;;3.43;3.20;;;10.70;99.90;;;;;;5090414;28;20205;-80
2021/10/31 03:15:11;;;;;;;3.53;3.00;;;10.80;99.90;;;;;;5078470;28;20449;-80
2021/10/31 03:17:38;;;;;;;3.80;3.50;;;10.90;99.90;;;;;;5084048;28;20495;-80
2021/10/31 03:20:06;;;;;;;3.33;2.93;;;10.90;99.90;;;;;;5098578;28;20448;-80
2021/10/31 03:22:33;;;;;;;4.33;3.50;;;10.90;99.90;;;;;;5083042;28;20451;-80
2021/10/31 03:25:00;;;;;;;3.30;3.00;;;10.90;99.90;;;;;;5078366;28;20460;-80
2021/10/31 03:27:28;;;;;;;3.50;3.20;;;10.80;99.90;;;;;;5091084;28;20480;-80
2021/10/31 03:29:55;;;;;;;4.13;3.67;;;10.90;99.90;;;;;;5098483;28;20456;-80
2021/10/31 03:32:21;;;;;;;6.73;4.43;;;10.90;99.90;;;;;;5086095;28;20455;-80
2021/10/31 03:34:49;;;;;;;3.40;3.20;;;10.80;99.90;;;;;;5077938;28;20840;-81
2021/10/31 03:37:15;;;;;;;5.87;3.30;;;10.90;99.90;;;;;;5088728;28;20578;-80
2021/10/31 03:39:42;;;;;;;5.47;3.23;;;10.90;99.90;;;;;;5098510;28;20532;-80
2021/10/31 03:42:09;;;;;;;3.00;2.80;;;10.90;99.90;;;;;;5092717;28;20450;-80
2021/10/31 03:44:47;;;;;;;4.03;3.73;;;10.70;99.90;;;;;;5082506;28;20465;-80
2021/10/31 03:47:14;;;;;;;3.47;3.00;;;10.70;99.90;;;;;;5082859;28;20448;-83
2021/10/31 03:49:41;;;;;;;2.97;2.78;;;10.80;99.90;;;;;;5081310;28;20949;-80
2021/10/31 03:52:08;;;;;;;4.40;3.10;;;10.80;99.90;;;;;;5088119;28;20203;-81
2021/10/31 03:54:35;;;;;;;2.97;2.77;;;10.70;99.90;;;;;;5102436;28;20449;-81
2021/10/31 03:57:01;;;;;;;4.20;3.80;;;10.70;99.90;;;;;;5095517;28;20477;-81
2021/10/31 03:59:28;;;;;;;3.53;3.23;;;10.80;99.90;;;;;;5082041;28;20453;-81
2021/10/31 04:01:56;;;;;;;4.53;4.13;;;10.70;99.90;;;;;;5085457;28;20448;-82
2021/10/31 04:04:23;;;;;;;3.43;3.13;;;10.70;99.90;;;;;;5101627;28;20834;-81
2021/10/31 04:06:50;;;;;;;3.73;3.43;;;10.60;99.90;;;;;;5098414;28;20453;-81
2021/10/31 04:09:16;;;;;;;3.10;2.90;;;10.60;99.90;;;;;;5081713;28;20476;-81
2021/10/31 04:11:43;;;;;;;3.67;3.47;;;10.50;99.90;;;;;;5083113;28;20452;-81
2021/10/31 04:14:10;;;;;;;4.40;3.60;;;10.50;99.90;;;;;;5101192;28;20548;-81
2021/10/31 04:16:37;;;;;;;3.53;3.33;;;10.40;99.90;;;;;;5083911;28;20490;-81
2021/10/31 04:19:06;;;;;;;6.93;4.70;;;10.40;99.90;;;;;;5081134;28;20482;-81
2021/10/31 04:21:33;;;;;;;5.23;4.37;;;10.40;99.90;;;;;;5097641;28;20453;-81
2021/10/31 04:24:00;;;;;;;4.33;3.93;;;10.30;99.90;;;;;;5101225;28;20524;-81
2021/10/31 04:26:27;;;;;;;5.97;4.18;;;10.30;99.90;;;;;;5086454;28;20460;-81
2021/10/31 04:28:53;;;;;;;6.03;5.43;;;10.20;99.90;;;;;;5080677;28;20237;-81
2021/10/31 04:31:20;;;;;;;5.60;5.10;;;10.20;99.90;;;;;;5093760;28;20208;-81
2021/10/31 04:33:47;;;;;;;5.80;5.27;;;10.20;99.90;;;;;;5100718;28;20206;-81
2021/10/31 04:36:17;;;;;;;5.10;4.70;;;10.20;99.90;;;;;;5089720;28;20476;-81
2021/10/31 04:38:46;;;;;;;5.25;4.75;;;10.10;99.90;;;;;;5080439;28;20770;-81
2021/10/31 04:41:12;;;;;;;6.97;6.13;;;10.10;99.90;;;;;;5081751;28;20200;-81
2021/10/31 04:43:39;;;;;;;5.93;5.33;;;10.10;99.90;;;;;;5080002;28;20464;-81
2021/10/31 04:46:06;;;;;;;5.73;5.20;;;10.10;99.90;;;;;;5081614;28;20502;-81
2021/10/31 04:48:33;;;;;;;8.27;7.47;;;10.10;99.90;;;;;;5080506;28;20466;-81
2021/10/31 04:50:59;;;;;;;8.50;7.50;;;10.10;99.90;;;;;;5088218;28;20565;-81
2021/10/31 04:53:27;;;;;;;6.27;5.77;;;10.10;99.90;;;;;;5098774;28;20208;-81
2021/10/31 04:55:54;;;;;;;9.00;7.57;;;10.10;99.90;;;;;;5092986;28;20525;-81
2021/10/31 04:58:21;;;;;;;6.13;5.70;;;10.10;99.90;;;;;;5080158;28;20483;-81
2021/10/31 05:00:48;;;;;;;8.23;7.50;;;10.10;99.90;;;;;;5080654;28;20235;-81
2021/10/31 05:03:15;;;;;;;8.70;8.00;;;10.10;99.90;;;;;;5080084;28;20455;-82
2021/10/31 05:05:41;;;;;;;10.47;9.57;;;10.10;99.90;;;;;;5086429;28;20453;-81
2021/10/31 05:08:08;;;;;;;9.93;8.93;;;10.10;99.90;;;;;;5100158;28;20471;-81
2021/10/31 05:10:36;;;;;;;9.93;9.00;;;10.00;99.90;;;;;;5106603;28;20450;-81
2021/10/31 05:13:03;;;;;;;10.35;9.35;;;10.10;99.90;;;;;;5095815;28;20442;-81
2021/10/31 05:15:29;;;;;;;9.67;8.77;;;10.10;99.90;;;;;;5090376;28;20205;-81
2021/10/31 05:17:57;;;;;;;9.88;8.93;;;10.10;99.90;;;;;;5101636;28;20492;-81
2021/10/31 05:20:23;;;;;;;13.70;10.55;;;10.20;99.90;;;;;;5102564;28;20211;-81
2021/10/31 05:22:50;;;;;;;10.13;9.32;;;10.10;99.90;;;;;;5092458;28;20200;-80
2021/10/31 05:25:17;;;;;;;9.93;9.00;;;10.20;99.90;;;;;;5092960;28;20215;-81
2021/10/31 05:27:45;;;;;;;10.25;9.35;;;10.20;99.90;;;;;;5128279;22;20483;-83
2021/10/31 05:30:13;;;;;;;10.00;9.30;;;10.20;99.90;;;;;;5123880;28;20202;-83
2021/10/31 05:32:41;;;;;;;8.97;8.23;;;10.20;99.90;;;;;;5139021;28;20451;-84
2021/10/31 05:35:11;;;;;;;10.57;9.67;;;10.30;99.90;;;;;;5118498;28;20454;-83
2021/10/31 05:37:41;;;;;;;9.67;8.77;;;10.20;99.90;;;;;;5117639;28;20593;-84
2021/10/31 05:40:10;;;;;;;10.33;9.43;;;10.20;99.90;;;;;;5114093;28;20452;-84
2021/10/31 05:42:38;;;;;;;10.47;8.47;;;10.20;99.90;;;;;;5097579;28;20949;-84
2021/10/31 05:45:08;;;;;;;10.27;8.73;;;10.20;99.90;;;;;;5117594;28;20470;-84
2021/10/31 05:47:36;;;;;;;9.33;8.50;;;10.20;99.90;;;;;;5110025;28;20449;-84
2021/10/31 05:50:04;;;;;;;9.00;8.20;;;10.20;99.90;;;;;;5095903;28;20938;-83
2021/10/31 05:52:31;;;;;;;9.37;8.57;;;10.20;99.90;;;;;;5101680;28;20456;-83
2021/10/31 05:54:59;;;;;;;8.98;8.20;;;10.20;99.90;;;;;;5116845;28;20481;-84
2021/10/31 05:57:26;;;;;;;9.53;8.63;;;10.20;99.90;;;;;;5116014;28;20229;-84
2021/10/31 05:59:53;;;;;;;9.60;8.80;;;10.20;99.90;;;;;;5116272;28;20463;-84
2021/10/31 06:02:21;;;;;;;7.87;7.27;;;10.20;99.90;;;;;;5116583;28;20247;-84
2021/10/31 06:04:49;;;;;;;8.43;7.13;;;10.20;99.90;;;;;;5116230;28;20823;-84
2021/10/31 06:07:15;;;;;;;7.23;6.63;;;10.20;99.90;;;;;;5116195;28;20211;-84
2021/10/31 06:09:42;;;;;;;8.17;7.40;;;10.10;99.90;;;;;;5116052;28;20467;-83
2021/10/31 06:12:10;;;;;;;5.87;5.37;;;10.20;99.90;;;;;;5116161;28;20448;-83
2021/10/31 06:14:38;;;;;;;7.00;6.50;;;10.20;99.90;;;;;;5075247;28;20448;-84
2021/10/31 06:17:05;;;;;;;6.93;6.30;;;10.20;99.90;;;;;;5075400;28;20225;-84
2021/10/31 06:19:34;;;;;;;6.93;6.40;;;10.20;99.90;;;;;;5112826;28;20226;-84
2021/10/31 06:22:00;;;;;;;6.63;6.05;;;10.20;99.90;;;;;;5115532;28;20452;-84
2021/10/31 06:24:27;;;;;;;6.75;6.15;;;10.10;99.90;;;;;;5116016;28;20208;-84
2021/10/31 06:26:54;;;;;;;6.28;5.68;;;10.20;99.90;;;;;;5115798;28;20201;-83
2021/10/31 06:29:21;;;;;;;7.72;7.13;;;10.20;99.90;;;;;;5115554;28;20229;-83
2021/10/31 06:31:48;;;;;;;7.60;6.70;;;10.20;99.90;;;;;;5097297;28;20199;-83
2021/10/31 06:34:14;;;;;;;7.00;6.40;;;10.20;99.90;;;;;;5094668;28;20203;-84
2021/10/31 06:36:43;;;;;;;7.10;6.50;;;10.20;99.90;;;;;;5095174;28;20214;-84
2021/10/31 06:39:09;;;;;;;6.68;6.18;;;10.30;99.90;;;;;;5095703;28;20480;-84
2021/10/31 06:41:36;;;;;;;9.60;7.00;;;10.30;99.90;;;;;;5095196;28;20213;-84
2021/10/31 06:44:03;;;;;;;6.80;6.27;;;10.40;99.90;;;;;;5098707;28;20456;-83
2021/10/31 06:46:31;;;;;;;8.07;7.47;;;10.50;99.90;;;;;;5116059;28;20455;-85
2021/10/31 06:49:12;;;;;;;7.17;6.57;;;10.50;99.90;;;;;;5117082;28;20476;-86
2021/10/31 06:51:41;;;;;;;8.13;7.40;;;10.60;99.90;;;;;;5116293;28;20471;-85
2021/10/31 06:54:39;;;;;;;7.37;6.77;;;10.60;99.90;;;;;;5099182;28;21020;-86
2021/10/31 06:57:34;;;;;;;7.70;7.20;;;10.70;99.90;;;;;;5094369;28;20481;-88
2021/10/31 07:00:12;;;;;;;7.93;7.13;;;10.80;99.90;;;;;;5094268;28;20476;-85
2021/10/31 07:03:04;;;;;;;8.47;7.57;;;10.90;99.90;;;;;;5075873;28;20946;-86
2021/10/31 07:08:53;;;;;;;7.77;7.00;;;11.00;99.90;;;;;;5077682;28;20458;-88
2021/10/31 07:11:19;;;;;;;6.63;6.03;;;11.10;99.90;;;;;;5091607;28;20491;-86
2021/10/31 07:13:47;;;;;;;6.90;6.30;;;11.20;99.90;;;;;;5120905;28;20460;-87
2021/10/31 07:16:14;;;;;;;8.30;7.60;;;11.20;99.90;;;;;;5106696;28;20527;-86
2021/10/31 07:18:41;;;;;;;8.45;7.63;;;11.30;99.90;;;;;;5101000;28;20500;-86
2021/10/31 07:21:08;;;;;;;7.83;7.23;;;11.20;99.90;;;;;;5116075;28;20208;-86
2021/10/31 07:23:35;;;;;;;7.93;7.13;;;11.30;99.90;;;;;;5124164;28;20479;-85
2021/10/31 07:26:01;;;;;;;7.97;7.07;;;11.40;99.90;;;;;;5113915;28;20453;-86
2021/10/31 07:28:28;;;;;;;8.80;8.00;;;11.60;99.90;;;;;;5105431;28;20472;-85
2021/10/31 07:30:58;;;;;;;8.80;8.07;;;11.70;99.90;;;;;;5114693;28;20462;-86
2021/10/31 07:33:38;;;;;;;7.60;7.00;;;11.70;99.90;;;;;;5125820;28;20448;-86
2021/10/31 07:36:05;;;;;;;7.50;6.93;;;11.70;99.90;;;;;;5115158;28;20473;-86
2021/10/31 07:38:32;;;;;;;7.73;7.20;;;11.80;99.90;;;;;;5105128;28;20497;-86
2021/10/31 07:40:58;;;;;;;6.90;6.20;;;11.80;99.90;;;;;;5120264;28;20447;-85
2021/10/31 07:43:25;;;;;;;7.83;7.10;;;11.90;99.90;;;;;;5115861;28;20453;-85
2021/10/31 07:45:52;;;;;;;7.67;6.97;;;12.00;99.90;;;;;;5105429;28;20453;-86
2021/10/31 07:48:21;;;;;;;9.17;8.37;;;12.10;99.90;;;;;;5111714;28;20465;-86
2021/10/31 07:50:48;;;;;;;7.87;7.23;;;12.20;99.90;;;;;;5111157;28;20452;-84
2021/10/31 07:53:14;;;;;;;7.87;6.77;;;12.30;99.90;;;;;;5095561;28;20457;-83
2021/10/31 07:55:47;;;;;;;7.67;6.80;;;12.40;99.90;;;;;;5098990;28;20450;-84
2021/10/31 07:58:16;;;;;;;7.23;6.67;;;12.50;99.90;;;;;;5096086;28;20877;-85
2021/10/31 08:00:43;;;;;;;7.47;6.87;;;12.70;99.90;;;;;;5094121;28;20454;-85
2021/10/31 08:03:09;;;;;;;7.70;7.00;;;12.70;99.90;;;;;;5096318;28;20454;-85
2021/10/31 08:05:38;;;;;;;7.53;6.83;;;12.90;99.90;;;;;;5093572;28;20729;-85
2021/10/31 08:08:05;;;;;;;6.40;5.90;;;13.00;99.90;;;;;;5096670;28;20465;-85
2021/10/31 08:10:32;;;;;;;5.27;4.87;;;13.10;99.90;;;;;;5092162;28;20446;-86
2021/10/31 08:13:00;;;;;;;7.27;6.60;;;13.20;99.90;;;;;;5095597;28;20462;-85
2021/10/31 08:15:27;;;;;;;7.13;6.43;;;13.30;99.90;;;;;;5102340;28;20449;-86
2021/10/31 08:17:53;;;;;;;7.33;6.80;;;13.30;99.90;;;;;;5105438;28;20577;-84
2021/10/31 08:20:20;;;;;;;7.30;6.60;;;13.20;99.90;;;;;;5113160;28;20498;-82
2021/10/31 08:22:49;;;;;;;7.57;7.00;;;13.10;99.90;;;;;;5115407;28;20442;-81
2021/10/31 08:25:16;;;;;;;7.00;6.40;;;13.10;99.90;;;;;;5106077;28;20561;-86
2021/10/31 08:27:44;;;;;;;6.50;6.00;;;13.00;99.90;;;;;;5108249;28;20503;-84
2021/10/31 08:30:11;;;;;;;8.80;7.07;;;13.00;99.90;;;;;;5107579;28;20475;-86
2021/10/31 08:32:46;;;;;;;8.60;7.80;;;13.10;99.90;;;;;;5109254;28;20457;-83
2021/10/31 08:35:13;;;;;;;8.13;7.33;;;13.10;99.90;;;;;;5105779;28;20465;-84
2021/10/31 08:37:40;;;;;;;7.60;7.00;;;13.10;99.90;;;;;;5108468;28;20496;-84
2021/10/31 08:40:11;;;;;;;8.40;7.67;;;13.10;99.90;;;;;;5107870;28;20555;-85
2021/10/31 08:42:38;;;;;;;7.67;7.00;;;13.20;99.90;;;;;;5103945;28;20454;-83
2021/10/31 08:45:06;;;;;;;7.00;6.30;;;13.10;99.90;;;;;;5107812;28;20450;-84
2021/10/31 08:47:33;;;;;;;7.00;6.40;;;13.20;99.90;;;;;;5106342;28;20446;-85
2021/10/31 08:50:05;;;;;;;7.87;7.30;;;13.30;99.90;;;;;;5107253;28;20434;-84
2021/10/31 08:52:32;;;;;;;6.70;6.13;;;13.30;99.90;;;;;;5124274;28;20520;-85
2021/10/31 08:54:59;;;;;;;8.03;7.33;;;13.40;99.90;;;;;;5127140;28;20449;-86
2021/10/31 08:57:28;;;;;;;7.30;6.80;;;13.40;99.90;;;;;;5108087;28;20458;-85
2021/10/31 08:59:54;;;;;;;8.70;7.90;;;13.30;99.90;;;;;;5106886;28;20540;-82
2021/10/31 09:02:21;;;;;;;9.13;8.30;;;13.30;99.90;;;;;;5129187;28;20449;-85
2021/10/31 09:04:48;;;;;;;9.67;8.77;;;13.30;99.90;;;;;;5129034;28;20448;-84
2021/10/31 09:07:15;;;;;;;8.57;7.80;;;13.40;99.90;;;;;;5107538;28;20450;-85
2021/10/31 09:09:58;;;;;;;8.00;7.20;;;13.40;99.90;;;;;;5108152;28;20493;-83
2021/10/31 09:12:25;;;;;;;8.30;7.60;;;13.40;99.90;;;;;;5112167;28;20811;-82
2021/10/31 09:14:54;;;;;;;8.83;8.20;;;13.50;99.90;;;;;;5117282;28;20452;-83
2021/10/31 09:17:21;;;;;;;7.60;7.00;;;13.50;99.90;;;;;;5109036;28;20452;-81
2021/10/31 09:19:48;;;;;;;7.73;7.00;;;13.50;99.90;;;;;;5110130;28;20490;-81
2021/10/31 09:22:15;;;;;;;7.77;7.10;;;13.60;99.90;;;;;;5114908;28;20462;-81
2021/10/31 09:24:42;;;;;;;6.07;5.60;;;13.70;99.90;;;;;;5117201;28;20480;-82
2021/10/31 09:27:08;;;;;;;6.03;5.57;;;13.80;99.90;;;;;;5121907;28;20449;-81
2021/10/31 09:29:35;;;;;;;6.40;5.83;;;13.80;99.90;;;;;;5123920;28;20462;-83
2021/10/31 09:32:16;;;;;;;5.73;5.23;;;13.90;99.90;;;;;;5120622;28;20456;-84
2021/10/31 09:34:46;;;;;;;5.90;5.40;;;14.00;99.90;;;;;;5125129;28;20445;-84
2021/10/31 09:37:12;;;;;;;6.90;6.40;;;14.10;99.90;;;;;;5125976;28;20445;-84
2021/10/31 09:39:39;;;;;;;6.27;5.73;;;14.10;99.90;;;;;;5124657;28;20861;-84
2021/10/31 09:42:07;;;;;;;6.07;5.53;;;14.30;99.90;;;;;;5125619;28;20453;-84
2021/10/31 09:44:47;;;;;;;5.27;4.97;;;14.40;99.90;;;;;;5126499;28;20457;-84
2021/10/31 09:47:21;;;;;;;5.80;5.30;;;14.50;99.90;;;;;;5125670;28;20460;-84
2021/10/31 09:49:51;;;;;;;5.47;5.03;;;14.60;99.90;;;;;;5126371;28;20505;-84
2021/10/31 09:52:19;;;;;;;4.43;4.13;;;14.80;99.90;;;;;;5125817;28;20439;-84
2021/10/31 09:54:50;;;;;;;4.77;4.47;;;14.90;99.90;;;;;;5125534;28;20440;-84
2021/10/31 10:00:13;;;;;;;3.83;3.47;;;15.30;99.90;;;;;;5124265;28;20439;-84
2021/10/31 10:03:04;;;;;;;4.80;4.10;;;15.50;99.90;;;;;;5125607;28;20455;-83
2021/10/31 10:06:13;;;;;;;4.27;3.97;;;15.70;99.90;;;;;;5124773;28;20461;-85
2021/10/31 10:08:55;;;;;;;4.50;4.20;;;16.00;99.90;;;;;;5126289;28;20470;-85
2021/10/31 10:11:22;;;;;;;4.20;4.00;;;16.20;99.90;;;;;;5126194;28;20442;-85
2021/10/31 10:14:10;;;;;;;3.80;3.57;;;16.40;99.90;;;;;;5125432;28;20807;-85
2021/10/31 10:16:37;;;;;;;4.43;4.03;;;16.60;99.90;;;;;;5126089;28;20504;-85
2021/10/31 10:19:15;;;;;;;4.50;4.10;;;16.90;99.90;;;;;;5125563;28;20472;-85
2021/10/31 10:21:42;;;;;;;3.17;2.97;;;17.20;99.90;;;;;;5125236;28;20480;-85
2021/10/31 10:24:10;;;;;;;3.80;3.50;;;17.30;99.90;;;;;;5125717;28;20456;-84
2021/10/31 10:26:39;;;;;;;3.60;3.10;;;17.50;99.90;;;;;;5126457;28;20456;-85
2021/10/31 10:29:18;;;;;;;3.80;3.57;;;17.60;99.90;;;;;;5125052;28;20499;-85
2021/10/31 10:31:47;;;;;;;3.00;2.80;;;17.80;99.90;;;;;;5125776;28;20505;-84
2021/10/31 10:34:16;;;;;;;3.60;3.30;;;17.90;99.90;;;;;;5125282;28;20475;-84
2021/10/31 10:36:45;;;;;;;4.13;3.80;;;18.10;99.90;;;;;;5125380;28;20452;-85
2021/10/31 10:39:14;;;;;;;3.13;2.83;;;18.50;99.90;;;;;;5125075;27;20465;-84
2021/10/31 10:41:44;;;;;;;3.37;3.10;;;19.00;99.90;;;;;;5124787;28;20456;-84
2021/10/31 10:44:24;;;;;;;4.63;4.17;;;19.80;99.90;;;;;;5125147;28;20866;-85
2021/10/31 10:46:58;;;;;;;3.63;3.17;;;20.80;99.90;;;;;;5126340;28;20800;-85
2021/10/31 10:49:28;;;;;;;3.13;2.93;;;21.80;98.30;;;;;;5125671;28;20494;-83
2021/10/31 10:52:26;;;;;;;2.47;2.27;;;22.70;95.70;;;;;;5124511;28;20447;-82
2021/10/31 10:55:00;;;;;;;2.97;2.77;;;23.50;93.80;;;;;;5043050;28;21069;-81
2021/10/31 10:57:29;;;;;;;2.30;2.20;;;24.20;90.70;;;;;;5110756;28;20452;-82
2021/10/31 11:00:06;;;;;;;2.93;2.00;;;24.60;90.00;;;;;;5120191;28;20442;-83
2021/10/31 11:02:38;;;;;;;2.57;2.40;;;25.40;88.00;;;;;;5118439;28;20458;-84
2021/10/31 11:05:08;;;;;;;2.67;2.47;;;26.10;84.40;;;;;;5107737;28;20440;-83
2021/10/31 11:07:39;;;;;;;3.00;2.27;;;25.80;80.00;;;;;;5117054;28;20446;-83
2021/10/31 11:10:19;;;;;;;2.47;2.27;;;25.60;79.00;;;;;;5126875;28;20513;-84
2021/10/31 11:12:47;;;;;;;3.00;2.80;;;25.60;80.10;;;;;;5118072;28;20448;-84
2021/10/31 11:15:18;;;;;;;2.00;1.90;;;25.60;77.70;;;;;;5108379;28;20483;-85
2021/10/31 11:17:47;;;;;;;2.13;2.03;;;25.80;75.30;;;;;;5123227;28;20481;-83
2021/10/31 11:20:17;;;;;;;5.23;2.40;;;25.60;74.10;;;;;;5127366;28;20442;-84
2021/10/31 11:22:46;;;;;;;3.13;2.70;;;25.40;73.80;;;;;;5127047;28;20882;-85
2021/10/31 11:25:15;;;;;;;2.30;2.10;;;25.60;75.20;;;;;;5122496;28;20447;-83
2021/10/31 11:27:42;;;;;;;2.43;2.23;;;26.00;73.30;;;;;;5110559;28;20478;-83
2021/10/31 11:30:12;;;;;;;2.50;2.30;;;26.20;73.40;;;;;;5107141;28;20489;-83
2021/10/31 11:32:40;;;;;;;2.40;2.27;;;26.60;70.60;;;;;;5126884;28;20459;-84
2021/10/31 11:35:08;;;;;;;2.10;2.00;;;26.70;70.50;;;;;;5125214;28;20442;-83
2021/10/31 11:37:41;;;;;;;3.57;3.27;;;27.10;71.50;;;;;;5105414;28;20461;-83
2021/10/31 11:40:10;;;;;;;2.87;2.67;;;27.70;70.60;;;;;;5102776;28;20455;-82
2021/10/31 11:42:40;;;;;;;3.13;2.93;;;27.90;66.40;;;;;;5125183;28;20511;-84
2021/10/31 11:45:10;;;;;;;2.13;1.93;;;28.10;66.50;;;;;;5123791;28;20458;-84
2021/10/31 11:47:38;;;;;;;2.33;2.23;;;28.40;66.40;;;;;;5105478;28;20456;-83
2021/10/31 11:50:15;;;;;;;2.70;2.50;;;28.70;64.40;;;;;;5114367;28;20482;-84
2021/10/31 11:52:52;;;;;;;2.03;1.93;;;29.10;64.70;;;;;;5124195;28;20458;-84
2021/10/31 11:55:47;;;;;;;4.93;2.73;;;29.60;62.70;;;;;;5116127;28;20533;-84
2021/10/31 11:58:53;;;;;;;2.50;2.30;;;29.80;61.10;;;;;;5111230;28;20537;-84
2021/10/31 12:01:35;;;;;;;2.77;2.53;;;30.20;60.60;;;;;;5123324;28;20497;-84
2021/10/31 12:04:05;;;;;;;2.90;2.70;;;30.50;58.30;;;;;;5127013;28;20446;-83
2021/10/31 12:06:53;;;;;;;2.70;2.50;;;30.50;57.00;;;;;;5126359;28;20450;-83
2021/10/31 12:09:27;;;;;;;2.60;2.50;;;30.80;58.10;;;;;;5135306;28;20481;-83
2021/10/31 12:12:17;;;;;;;3.07;2.87;;;30.90;55.40;;;;;;5136799;28;20427;-84
2021/10/31 12:14:56;;;;;;;2.83;1.97;;;30.90;53.40;;;;;;5131560;28;20449;-83
2021/10/31 12:17:25;;;;;;;3.00;2.70;;;31.00;54.00;;;;;;5119944;28;20452;-82
2021/10/31 12:19:54;;;;;;;4.00;2.40;;;31.60;53.60;;;;;;5106084;28;20817;-82
2021/10/31 12:22:32;;;;;;;2.27;2.17;;;32.00;51.60;;;;;;5105390;28;20452;-84
2021/10/31 12:25:03;;;;;;;1.87;1.77;;;31.90;50.10;;;;;;5105322;28;20482;-84
2021/10/31 12:27:41;;;;;;;2.07;1.97;;;31.70;49.20;;;;;;5104872;28;20469;-84
2021/10/31 12:30:41;;;;;;;2.27;2.17;;;31.20;49.20;;;;;;5110320;28;20476;-82
2021/10/31 12:33:10;;;;;;;2.20;2.00;;;30.90;49.40;;;;;;5112429;28;20445;-79
2021/10/31 12:35:39;;;;;;;1.70;1.60;;;30.50;50.00;;;;;;5113574;28;20434;-80
2021/10/31 12:38:32;;;;;;;2.33;2.23;;;30.80;50.30;;;;;;5114563;28;20467;-81
2021/10/31 12:41:33;;;;;;;2.50;2.27;;;31.00;49.20;;;;;;5091561;28;20477;-84
2021/10/31 12:44:12;;;;;;;2.17;2.03;;;30.60;49.30;;;;;;5116443;28;20455;-82
2021/10/31 12:46:40;;;;;;;2.60;2.00;;;30.10;49.40;;;;;;5124517;28;20461;-83
2021/10/31 12:49:08;;;;;;;2.10;2.00;;;29.70;49.90;;;;;;5124539;28;20487;-83
2021/10/31 12:51:50;;;;;;;2.40;2.00;;;29.30;50.90;;;;;;5125536;28;20470;-82
2021/10/31 12:54:22;;;;;;;2.90;2.27;;;29.30;51.30;;;;;;5124114;28;20469;-82
2021/10/31 12:56:51;;;;;;;5.20;2.53;;;28.90;51.70;;;;;;5124783;28;20462;-82
2021/10/31 12:59:17;;;;;;;2.57;2.37;;;28.60;52.00;;;;;;5125091;28;20463;-82
2021/10/31 13:01:45;;;;;;;2.00;1.90;;;28.40;52.40;;;;;;5124184;28;20971;-82
2021/10/31 13:04:13;;;;;;;2.07;1.97;;;28.10;52.90;;;;;;5124132;28;20451;-83
2021/10/31 13:06:52;;;;;;;1.73;1.63;;;27.80;53.00;;;;;;5106184;28;20452;-82
2021/10/31 13:09:20;;;;;;;2.17;2.07;;;27.70;53.90;;;;;;5104498;28;20486;-84